Latest Weather Observations for Coles Point

IDS60801

Issued at 5:31 pm CST Wednesday 31 August 2016 (issued every 30 minutes, with the page automatically refreshed every 10 minutes)

About weather observations | Map of weather stations | Latest weather observations for SA | Other Formats
Station Details ID: 018191 Name: COLES POINT Lat: -34.37 Lon: 135.37 Height: 28.0 m
Data from the previous 72 hours. | See also: Recent months at Coles Point
Date/Time
CST
Temp
°C
App
Temp
°C
Dew
Point
°C
Rel
Hum
%
Delta-T
°C
Wind Press
QNH
hPa
Press
MSL
hPa
Rain since
9am
mm
Dir  Spd
km/h
Gust
km/h
Spd
kts
Gust
kts
31/05:30pm 13.6 12.5 10.6 82 1.6 NW 7 9 4 5 1017.9 1018.0 0.0
31/05:00pm 13.9 12.3 10.1 78 2.0 NW 9 13 5 7 1017.9 1018.0 0.0
31/04:30pm 14.5 13.2 10.1 75 2.3 W 7 11 4 6 1017.8 1017.9 0.0
31/04:00pm 14.8 13.3 10.4 75 2.3 W 9 13 5 7 1017.7 1017.8 0.0
31/03:30pm 15.0 14.1 11.2 78 2.0 WNW 7 11 4 6 1017.6 1017.7 0.0
31/03:00pm 15.1 13.8 11.3 78 2.0 WNW 9 15 5 8 1017.6 1017.7 0.0
31/02:30pm 14.9 13.0 10.5 75 2.3 W 11 17 6 9 1017.7 1017.8 0.0
31/02:00pm 15.6 13.8 11.0 74 2.5 W 11 15 6 8 1017.7 1017.8 0.0
31/01:30pm 15.3 12.6 10.5 73 2.5 W 15 19 8 10 1017.9 1018.0 0.0
31/01:00pm 15.1 13.4 11.1 77 2.1 W 11 17 6 9 1018.2 1018.3 0.0
31/12:30pm 14.3 12.3 11.6 84 1.4 WSW 13 17 7 9 1018.5 1018.5 0.0
31/12:00pm 14.6 13.3 12.5 87 1.1 WNW 11 20 6 11 1018.9 1018.9 0.0
31/11:30am 13.1 11.0 11.2 88 1.0 WSW 13 20 7 11 1019.1 1019.1 0.0
31/11:00am 14.1 10.5 10.5 79 1.9 WNW 20 28 11 15 1018.9 1018.9 0.0
31/10:30am 15.1 12.2 10.9 76 2.2 W 17 22 9 12 1019.0 1019.0 0.0
31/10:00am 14.6 12.0 10.6 77 2.1 WSW 15 19 8 10 1019.0 1019.0 0.0
31/09:30am 14.8 11.8 10.6 76 2.2 WSW 17 22 9 12 1018.9 1018.9 0.0
31/09:00am 13.9 11.2 10.3 79 1.9 W 15 20 8 11 1018.9 1018.9 1.2
31/08:30am 13.8 11.5 10.6 81 1.7 WSW 13 19 7 10 1018.5 1018.5 1.2
31/08:00am 13.8 10.5 11.0 83 1.5 WSW 19 24 10 13 1018.1 1018.2 1.2
31/07:30am 13.1 9.8 10.8 86 1.2 W 19 24 10 13 1017.8 1017.9 1.2
31/07:00am 12.9 10.4 11.0 88 1.0 W 15 20 8 11 1017.6 1017.7 1.2
31/06:30am 12.7 9.7 10.8 88 1.0 WSW 17 24 9 13 1017.1 1017.2 1.2
31/06:00am 13.0 10.3 11.6 91 0.7 W 17 26 9 14 1016.6 1016.7 1.2
31/05:30am 13.1 11.3 12.0 93 0.6 WNW 13 17 7 9 1016.1 1016.2 1.2
31/05:00am 12.9 10.6 11.6 92 0.7 WNW 15 20 8 11 1015.8 1015.9 1.2
31/04:30am 13.2 10.2 11.8 91 0.7 W 19 30 10 16 1015.6 1015.7 1.2
31/04:00am 13.0 10.7 11.9 93 0.6 W 15 20 8 11 1015.4 1015.5 1.2
31/03:30am 12.9 10.6 11.8 93 0.6 W 15 24 8 13 1015.4 1015.5 1.2
31/03:00am 12.7 10.7 11.6 93 0.6 WNW 13 19 7 10 1015.4 1015.5 1.2
31/02:30am 12.6 10.5 11.3 92 0.7 W 13 24 7 13 1015.5 1015.6 1.2
31/02:00am 13.1 10.8 11.8 92 0.7 WSW 15 24 8 13 1015.5 1015.6 0.8
31/01:30am 13.1 11.2 11.8 92 0.7 W 13 20 7 11 1015.6 1015.7 0.8
31/01:00am 13.2 10.9 11.8 91 0.7 W 15 22 8 12 1015.5 1015.6 0.8
31/12:30am 13.4 11.2 12.0 91 0.8 W 15 20 8 11 1015.2 1015.3 0.0
31/12:00am 13.2 10.6 11.9 92 0.7 W 17 24 9 13 1014.9 1015.0 0.0
 
Date/Time
CST
Temp
°C
App
Temp
°C
Dew
Point
°C
Rel
Hum
%
Delta-T
°C
Wind Press
QNH
hPa
Press
MSL
hPa
Rain since
9am
mm
Dir  Spd
km/h
Gust
km/h
Spd
kts
Gust
kts
30/11:30pm 12.8 10.4 11.4 91 0.7 WNW 15 19 8 10 1014.8 1014.9 0.0
30/11:00pm 12.7 10.5 10.8 88 1.0 W 13 19 7 10 1014.7 1014.8 0.0
30/10:30pm 13.5 10.8 11.6 88 1.0 W 17 24 9 13 1014.8 1014.9 0.0
30/10:00pm 13.2 10.4 11.3 88 1.0 W 17 26 9 14 1014.6 1014.7 0.0
30/09:30pm 13.3 10.5 11.2 87 1.1 W 17 24 9 13 1014.3 1014.4 0.0
30/09:00pm 13.6 10.4 11.8 89 1.0 WNW 20 28 11 15 1014.0 1014.0 0.0
30/08:30pm 13.6 10.5 12.2 91 0.8 WNW 20 30 11 16 1013.7 1013.7 0.0
30/08:00pm 13.6 10.5 12.3 92 0.7 WNW 20 28 11 15 1013.3 1013.3 0.0
30/07:30pm 13.4 10.5 12.3 93 0.6 WNW 19 24 10 13 1012.9 1012.9 0.0
30/07:00pm 13.3 10.4 12.2 93 0.6 NW 19 24 10 13 1012.7 1012.7 0.0
30/06:30pm 14.1 11.3 12.7 91 0.8 NW 19 24 10 13 1012.4 1012.4 0.0
30/06:00pm 13.9 10.9 11.9 88 1.1 WNW 19 26 10 14 1012.0 1012.0 0.0
30/05:30pm 14.8 11.8 12.5 86 1.3 WNW 20 32 11 17 1011.4 1011.4 0.0
30/05:00pm 15.1 12.2 12.8 86 1.3 WNW 20 30 11 16 1010.9 1010.9 0.0
30/04:30pm 15.4 11.6 12.5 83 1.6 WNW 24 35 13 19 1010.6 1010.6 0.0
30/04:00pm 16.1 12.1 13.0 82 1.7 NW 26 37 14 20 1010.3 1010.3 0.0
30/03:30pm 15.6 11.1 12.5 82 1.7 NW 28 39 15 21 1010.2 1010.2 0.0
30/03:00pm 15.8 11.3 12.7 82 1.7 NW 28 37 15 20 1010.2 1010.2 0.0
30/02:30pm 16.3 12.6 12.8 80 1.9 NW 24 37 13 20 1010.1 1010.1 0.0
30/02:00pm 17.0 13.6 13.7 81 1.9 NW 24 33 13 18 1010.0 1010.0 0.0
30/01:30pm 16.5 13.0 13.4 82 1.7 NW 24 35 13 19 1010.0 1010.0 0.0
30/01:00pm 16.7 13.1 13.2 80 2.0 NNW 24 32 13 17 1010.1 1010.1 0.0
30/12:30pm 16.8 12.8 12.9 78 2.2 NW 26 35 14 19 1010.3 1010.3 0.0
30/12:00pm 16.9 13.2 12.8 77 2.3 NNW 24 35 13 19 1010.3 1010.3 0.0
30/11:30am 17.1 13.9 13.2 78 2.2 NNW 22 33 12 18 1010.4 1010.4 0.0
30/11:00am 16.7 13.1 13.2 80 2.0 NNW 24 33 13 18 1010.5 1010.5 0.0
30/10:30am 16.3 12.4 13.2 82 1.7 NNW 26 33 14 18 1010.4 1010.4 0.0
30/10:00am 16.1 13.4 14.6 91 0.9 NNW 22 33 12 18 1010.3 1010.3 0.0
30/09:30am 15.4 12.9 15.2 99 0.1 N 22 32 12 17 1010.3 1010.3 0.0
30/09:00am 14.4 12.6 14.4 100 0.0 NNE 17 22 9 12 1010.3 1010.3 3.0
30/08:30am 12.8 10.4 12.8 100 0.0 NE 17 20 9 11 1010.3 1010.3 3.0
30/08:00am 11.9 10.0 11.9 100 0.0 NNE 13 17 7 9 1010.0 1010.0 3.0
30/07:30am 11.7 8.6 11.7 100 0.0 NE 19 24 10 13 1009.6 1009.6 3.0
30/07:00am 11.6 8.9 11.6 100 0.0 NE 17 22 9 12 1009.4 1009.4 3.0
30/06:30am 11.3 7.5 11.3 100 0.0 ENE 22 30 12 16 1009.1 1009.1 3.0
30/06:00am 11.4 8.2 11.4 100 0.0 NE 19 22 10 12 1009.0 1009.0 3.0
30/05:30am 11.4 9.0 11.4 100 0.0 NE 15 19 8 10 1008.9 1008.9 3.0
30/05:00am 11.4 9.0 11.4 100 0.0 NE 15 17 8 9 1009.0 1009.0 3.0
30/04:30am 11.4 8.2 11.4 100 0.0 NE 19 20 10 11 1008.9 1008.9 3.0
30/04:00am 11.6 8.5 11.6 100 0.0 NE 19 20 10 11 1009.0 1009.0 2.8
30/03:30am 11.7 8.6 11.7 100 0.0 NE 19 20 10 11 1009.0 1009.0 2.8
30/03:00am 12.3 9.4 12.3 100 0.0 NE 19 22 10 12 1009.3 1009.3 2.8
30/02:30am 12.2 10.8 12.2 100 0.0 NE 11 15 6 8 1010.0 1010.0 2.8
30/02:00am 12.6 10.9 12.6 100 0.0 NNE 13 17 7 9 1010.3 1010.3 2.8
30/01:30am 12.7 9.9 12.5 99 0.1 NE 19 22 10 12 1010.3 1010.3 2.8
30/01:00am 12.9 10.5 12.7 99 0.1 NE 17 22 9 12 1010.2 1010.2 2.8
30/12:30am 13.1 11.1 12.8 98 0.2 NE 15 19 8 10 1010.1 1010.1 2.8
30/12:00am 13.3 11.3 12.8 97 0.3 NE 15 20 8 11 1010.0 1010.0 2.8
 
Date/Time
CST
Temp
°C
App
Temp
°C
Dew
Point
°C
Rel
Hum
%
Delta-T
°C
Wind Press
QNH
hPa
Press
MSL
hPa
Rain since
9am
mm
Dir  Spd
km/h
Gust
km/h
Spd
kts
Gust
kts
29/11:30pm 13.4 11.5 12.9 97 0.3 NE 15 19 8 10 1010.0 1010.0 2.8
29/11:00pm 13.2 11.5 12.6 96 0.3 ENE 13 17 7 9 1010.3 1010.3 2.6
29/10:30pm 13.2 12.2 12.3 94 0.5 ENE 9 13 5 7 1010.4 1010.4 2.0
29/10:00pm 13.2 13.4 11.9 92 0.7 S 2 6 1 3 1010.7 1010.7 1.0
29/09:30pm 13.4 12.3 11.8 90 0.9 SW 9 13 5 7 1010.2 1010.2 0.2
29/09:00pm 13.7 12.2 11.8 88 1.0 SW 11 15 6 8 1010.0 1010.0 0.2
29/08:30pm 14.0 11.7 11.7 86 1.2 SW 15 20 8 11 1010.1 1010.1 0.2
29/08:00pm 14.3 12.1 10.7 79 1.9 WSW 13 15 7 8 1009.4 1009.4 0.2
29/07:30pm 13.7 13.0 11.4 86 1.2 WSW 6 15 3 8 1008.9 1008.9 0.2
29/07:00pm 13.1 13.3 10.6 85 1.3 CALM 0 0 0 0 1008.3 1008.3 0.2
29/06:30pm 13.8 14.0 10.4 80 1.8 CALM 0 2 0 1 1008.1 1008.1 0.2
29/06:00pm 15.1 14.2 10.5 74 2.4 W 6 7 3 4 1008.1 1008.1 0.2
29/05:30pm 16.9 17.0 11.6 71 2.9 W 2 4 1 2 1008.2 1008.2 0.2
29/05:00pm 16.6 15.3 12.4 76 2.3 WNW 11 17 6 9 1008.0 1008.0 0.2
29/04:30pm 17.1 15.3 12.2 73 2.7 WNW 13 19 7 10 1007.7 1007.7 0.2
29/04:00pm 17.6 16.2 12.3 71 2.9 NW 11 19 6 10 1007.6 1007.6 0.2
29/03:30pm 18.7 16.8 11.8 64 3.8 NW 13 17 7 9 1007.3 1007.3 0.2
29/03:00pm 19.2 18.1 12.0 63 4.0 NW 9 15 5 8 1007.3 1007.3 0.2
29/02:30pm 20.0 17.6 11.5 58 4.7 NNW 15 19 8 10 1007.2 1007.2 0.2
29/02:00pm 19.7 17.9 12.0 61 4.3 NNW 13 19 7 10 1007.2 1007.2 0.2
29/01:30pm 20.3 17.1 11.2 56 5.0 NNW 19 24 10 13 1007.4 1007.4 0.2
29/01:00pm 20.6 17.9 11.8 57 4.9 NNW 17 22 9 12 1007.6 1007.6 0.0
29/12:30pm 20.7 17.3 11.1 54 5.3 NNW 20 28 11 15 1008.1 1008.1 0.0
29/12:00pm 20.2 16.0 11.1 56 5.0 NNW 24 37 13 20 1008.3 1008.3 0.0
29/11:30am 20.4 15.9 10.2 52 5.5 NNW 24 33 13 18 1008.4 1008.4 0.0
29/11:00am 19.7 14.2 9.0 50 5.6 N 28 39 15 21 1008.8 1008.8 0.0
29/10:30am 18.4 13.2 8.7 53 5.0 NNE 26 35 14 19 1008.4 1008.4 0.0
29/10:00am 16.9 11.6 8.3 57 4.4 N 26 35 14 19 1008.7 1008.7 0.0
29/09:30am 16.8 10.8 8.5 58 4.3 NNE 30 43 16 23 1008.8 1008.8 0.0
29/09:00am 15.5 11.2 9.2 66 3.2 NNE 22 30 12 16 1009.2 1009.2 1.8
29/08:30am 13.5 9.6 9.4 76 2.1 NE 20 24 11 13 1009.4 1009.4 1.8
29/08:00am 11.4 7.4 9.0 85 1.2 NE 20 20 11 11 1009.1 1009.1 1.8
29/07:30am 11.0 7.3 9.3 89 0.9 NE 19 20 10 11 1008.8 1008.8 1.8
29/07:00am 11.2 7.5 9.3 88 1.0 NE 19 20 10 11 1008.4 1008.4 1.8
29/06:30am 11.7 8.2 10.1 90 0.8 NE 19 20 10 11 1008.2 1008.2 1.8
29/06:00am 12.1 9.4 10.3 89 0.9 NNE 15 19 8 10 1008.2 1008.2 1.8
29/05:30am 12.7 9.7 10.8 88 1.0 NE 17 22 9 12 1008.0 1008.0 1.6
29/05:00am 12.4 9.4 10.8 90 0.8 NNE 17 22 9 12 1007.9 1007.9 1.4
29/04:30am 12.6 9.6 10.8 89 0.9 NNE 17 22 9 12 1007.9 1007.9 0.8
29/04:00am 12.9 9.5 10.6 86 1.2 NE 19 24 10 13 1008.2 1008.2 0.8
29/03:30am 13.0 9.0 10.5 85 1.3 NNE 22 33 12 18 1008.8 1008.8 0.8
29/03:00am 13.7 10.0 10.1 79 1.9 NNE 20 26 11 14 1009.1 1009.1 0.2
29/02:30am 14.5 10.5 10.3 76 2.2 NNE 22 30 12 16 1009.0 1009.0 0.0
29/02:00am 14.2 10.3 10.8 80 1.8 NE 22 26 12 14 1009.0 1009.0 0.0
29/01:30am 14.3 9.6 10.7 79 1.9 NE 26 33 14 18 1009.1 1009.1 0.0
29/01:00am 14.5 10.1 10.5 77 2.1 NE 24 30 13 16 1009.4 1009.4 0.0
29/12:30am 14.9 10.1 10.3 74 2.4 NE 26 32 14 17 1009.7 1009.7 0.0
29/12:00am 15.0 9.7 10.0 72 2.6 NNE 28 39 15 21 1009.9 1009.9 0.0
 
Date/Time
CST
Temp
°C
App
Temp
°C
Dew
Point
°C
Rel
Hum
%
Delta-T
°C
Wind Press
QNH
hPa
Press
MSL
hPa
Rain since
9am
mm
Dir  Spd
km/h
Gust
km/h
Spd
kts
Gust
kts
28/11:30pm 15.6 10.3 9.9 69 3.0 NNE 28 39 15 21 1009.8 1009.8 0.0
28/11:00pm 16.0 12.4 9.9 67 3.2 NNE 19 35 10 19 1010.3 1010.3 0.0
28/10:30pm 15.7 12.0 10.0 69 3.0 N 20 30 11 16 1011.1 1011.1 0.0
28/10:00pm 16.4 11.7 9.3 63 3.7 N 24 33 13 18 1010.9 1010.9 0.0
28/09:30pm 16.2 11.5 9.4 64 3.5 NNE 24 32 13 17 1010.0 1010.0 0.0
28/09:00pm 16.1 10.7 9.5 65 3.4 NNE 28 39 15 21 1009.7 1009.7 0.0
28/08:30pm 16.6 11.5 9.3 62 3.8 NNE 26 32 14 17 1009.4 1009.4 0.0
28/08:00pm 16.4 11.5 9.8 65 3.5 NNE 26 37 14 20 1009.1 1009.1 0.0
28/07:30pm 16.6 10.1 10.2 66 3.4 NNE 35 48 19 26 1008.8 1008.8 0.0
28/07:00pm 16.3 9.2 9.7 65 3.4 NNE 37 48 20 26 1008.5 1008.5 0.0
28/06:30pm 17.1 10.0 9.5 61 4.0 N 37 56 20 30 1008.5 1008.5 0.0
28/06:10pm 18.2 11.0 9.0 55 4.8 N 37 57 20 31 1008.5 1008.5 0.0
28/06:00pm 19.8 13.7 6.5 42 6.7 N 28 43 15 23 1008.3 1008.3 0.0

Other Formats:

Comma delimited format used in spreadsheet applications
http://www.bom.gov.au/fwo/IDS60801/IDS60801.94658.axf

JavaScript Object Notation format (JSON) in row-major order
http://www.bom.gov.au/fwo/IDS60801/IDS60801.94658.json